Time;durP1;ratioP1;P1;durP2;ratioP2;P2;SDS_P1;SDS_P2;PMS_P1;PMS_P2;Temp;Humidity;BMP_temperature;BMP_pressure;BME280_temperature;BME280_humidity;BME280_pressure;Samples;Min_cycle;Max_cycle;Signal;HPM_P1;HPM_P2
2022/10/27 00:00:03;;;;;;;3.47;3.15;;;;;;;10.69;100.00;102045.97;1028817;28;20425;-90
2022/10/27 00:00:44;;;;;;;9.32;4.07;;;;;;;10.66;100.00;102047.16;1031790;28;20308;-90
2022/10/27 00:01:16;;;;;;;4.28;3.10;;;;;;;10.67;100.00;102038.13;1035890;28;20294;-90
2022/10/27 00:01:47;;;;;;;5.47;2.72;;;;;;;10.63;100.00;102047.53;1044686;28;20773;-90
2022/10/27 00:02:19;;;;;;;9.30;3.38;;;;;;;10.65;100.00;102037.50;1043761;28;20307;-88
2022/10/27 00:02:51;;;;;;;3.78;3.35;;;;;;;10.66;100.00;102041.81;1032132;28;20305;-90
2022/10/27 00:03:22;;;;;;;4.97;3.00;;;;;;;10.66;100.00;102041.00;1031274;28;20304;-91
2022/10/27 00:03:54;;;;;;;4.45;3.30;;;;;;;10.67;100.00;102038.13;1034968;28;20340;-90
2022/10/27 00:04:26;;;;;;;4.70;3.33;;;;;;;10.66;100.00;102044.47;1038560;28;20296;-89
2022/10/27 00:04:57;;;;;;;3.55;3.00;;;;;;;10.66;100.00;102039.16;1039986;28;20311;-90
2022/10/27 00:05:29;;;;;;;6.32;4.43;;;;;;;10.66;100.00;102041.81;1041279;28;20541;-89
2022/10/27 00:06:05;;;;;;;7.30;3.85;;;;;;;10.66;100.00;102035.66;1040051;28;20337;-90
2022/10/27 00:06:37;;;;;;;3.92;3.22;;;;;;;10.65;100.00;102036.69;1035136;28;20289;-90
2022/10/27 00:07:09;;;;;;;3.72;3.13;;;;;;;10.64;100.00;102037.69;1042143;28;20729;-90
2022/10/27 00:07:41;;;;;;;5.40;2.85;;;;;;;10.63;100.00;102036.88;1032319;28;20661;-90
2022/10/27 00:08:14;;;;;;;6.72;3.42;;;;;;;10.64;100.00;102041.19;1038546;28;20336;-90
2022/10/27 00:08:48;;;;;;;17.33;3.83;;;;;;;10.60;100.00;102031.09;1042354;28;20719;-90
2022/10/27 00:09:20;;;;;;;3.67;3.38;;;;;;;10.59;100.00;102038.25;1037924;28;20308;-90
2022/10/27 00:09:51;;;;;;;3.67;3.38;;;;;;;10.58;100.00;102044.59;1042686;28;20350;-89
2022/10/27 00:10:23;;;;;;;6.30;3.85;;;;;;;10.61;100.00;102038.06;1041940;28;20631;-90
2022/10/27 00:10:56;;;;;;;4.90;3.75;;;;;;;10.62;100.00;102039.72;1031545;28;20324;-90
2022/10/27 00:11:28;;;;;;;15.57;6.40;;;;;;;10.58;100.00;102044.59;1033124;28;20301;-90
2022/10/27 00:12:00;;;;;;;5.97;3.17;;;;;;;10.59;100.00;102040.91;1031302;28;20306;-91
2022/10/27 00:12:32;;;;;;;8.95;3.15;;;;;;;10.60;100.00;102045.22;1029343;28;20333;-91
2022/10/27 00:13:05;;;;;;;9.55;3.50;;;;;;;10.59;100.00;102043.59;1035270;28;20352;-90
2022/10/27 00:13:37;;;;;;;3.40;3.03;;;;;;;10.58;100.00;102041.94;1036798;28;20398;-91
2022/10/27 00:14:08;;;;;;;3.88;3.33;;;;;;;10.59;100.00;102043.59;1040712;28;20872;-90
2022/10/27 00:14:40;;;;;;;5.85;3.15;;;;;;;10.59;100.00;102048.09;1041357;28;20843;-90
2022/10/27 00:15:12;;;;;;;3.67;3.25;;;;;;;10.57;100.00;102042.13;1047453;28;20302;-90
2022/10/27 00:15:54;;;;;;;7.40;2.88;;;;;;;10.62;100.00;102045.88;1041965;28;20367;-90
2022/10/27 00:16:26;;;;;;;5.10;3.65;;;;;;;10.61;100.00;102051.38;1041628;28;20662;-91
2022/10/27 00:16:57;;;;;;;15.13;5.43;;;;;;;10.62;100.00;102045.03;1037655;28;20299;-90
2022/10/27 00:17:29;;;;;;;5.72;3.92;;;;;;;10.62;100.00;102045.88;1037449;28;20309;-90
2022/10/27 00:18:00;;;;;;;8.15;4.40;;;;;;;10.63;100.00;102052.03;1035925;28;20343;-91
2022/10/27 00:18:32;;;;;;;5.03;3.25;;;;;;;10.62;100.00;102045.88;1036123;28;20304;-90
2022/10/27 00:19:04;;;;;;;5.75;4.05;;;;;;;10.60;100.00;102042.56;1035946;28;20703;-90
2022/10/27 00:19:35;;;;;;;4.25;3.80;;;;;;;10.58;100.00;102044.59;1034061;28;20771;-90
2022/10/27 00:20:07;;;;;;;5.60;3.40;;;;;;;10.59;100.00;102040.09;1036301;28;20671;-90
2022/10/27 00:20:39;;;;;;;5.47;3.85;;;;;;;10.58;100.00;102043.78;1035993;28;20297;-90
2022/10/27 00:21:13;;;;;;;4.72;3.75;;;;;;;10.59;100.00;102056.91;1041972;28;20295;-90
2022/10/27 00:21:44;;;;;;;6.30;3.50;;;;;;;10.59;100.00;102056.91;1038134;28;20868;-90
2022/10/27 00:22:16;;;;;;;4.82;3.25;;;;;;;10.58;100.00;102060.59;1038397;28;20292;-90
2022/10/27 00:22:48;;;;;;;5.20;3.38;;;;;;;10.58;100.00;102055.25;1043585;28;20292;-90
2022/10/27 00:23:20;;;;;;;8.35;3.55;;;;;;;10.56;100.00;102059.13;1043629;28;20303;-90
2022/10/27 00:23:51;;;;;;;6.57;3.92;;;;;;;10.56;100.00;102051.94;1039826;28;20318;-90
2022/10/27 00:24:23;;;;;;;4.78;2.80;;;;;;;10.55;100.00;102066.28;1035564;28;20328;-90
2022/10/27 00:24:55;;;;;;;5.00;3.25;;;;;;;10.55;100.00;102060.13;1031826;28;20873;-89
2022/10/27 00:25:26;;;;;;;4.82;3.47;;;;;;;10.54;100.00;102064.63;1028109;28;20788;-90
2022/10/27 00:25:58;;;;;;;5.32;2.75;;;;;;;10.54;100.00;102061.97;1028077;28;20306;-90
2022/10/27 00:26:30;;;;;;;4.50;3.38;;;;;;;10.54;100.00;102069.97;1023354;28;20313;-90
2022/10/27 00:27:01;;;;;;;6.30;3.33;;;;;;;10.57;100.00;102064.25;1027767;28;20304;-91
2022/10/27 00:27:33;;;;;;;9.75;4.30;;;;;;;10.63;100.00;102062.69;1030618;28;20316;-89
2022/10/27 00:28:04;;;;;;;4.97;3.30;;;;;;;10.65;100.00;102064.16;1027683;28;20317;-90
2022/10/27 00:28:36;;;;;;;7.32;3.88;;;;;;;10.68;100.00;102058.47;1030654;28;20297;-90
2022/10/27 00:29:08;;;;;;;4.65;3.40;;;;;;;10.72;100.00;102067.75;1035637;28;20292;-90
2022/10/27 00:29:39;;;;;;;9.77;4.30;;;;;;;10.77;100.00;102062.66;1028994;28;20302;-92
2022/10/27 00:30:11;;;;;;;6.65;3.88;;;;;;;10.78;100.00;102072.31;1032388;28;20372;-90
2022/10/27 00:30:42;;;;;;;12.07;3.85;;;;;;;10.81;100.00;102063.94;1038019;28;20722;-90
2022/10/27 00:31:17;;;;;;;4.22;3.13;;;;;;;10.81;100.00;102071.94;1036716;28;20347;-90
2022/10/27 00:31:48;;;;;;;7.47;3.97;;;;;;;10.85;100.00;102061.72;1035947;28;20311;-90
2022/10/27 00:32:21;;;;;;;7.72;4.25;;;;;;;10.92;100.00;102059.13;1040135;28;20300;-90
2022/10/27 00:32:53;;;;;;;9.98;3.35;;;;;;;10.95;100.00;102066.75;1031561;28;20305;-90
2022/10/27 00:33:25;;;;;;;5.90;3.47;;;;;;;10.97;100.00;102065.56;1027180;28;20294;-91
2022/10/27 00:33:56;;;;;;;9.60;4.10;;;;;;;10.95;100.00;102061.41;1023631;28;20303;-91
2022/10/27 00:34:28;;;;;;;5.85;3.42;;;;;;;10.97;100.00;102065.56;1023939;28;20302;-90
2022/10/27 00:34:59;;;;;;;12.57;3.72;;;;;;;10.95;100.00;102070.22;1028650;28;20306;-90
2022/10/27 00:35:35;;;;;;;7.65;3.72;;;;;;;10.95;100.00;102064.91;1036470;28;20682;-91
2022/10/27 00:36:10;;;;;;;5.00;4.50;;;;;;;10.96;100.00;102063.91;1048308;28;20326;-91
2022/10/27 00:36:41;;;;;;;4.82;3.67;;;;;;;10.98;100.00;102066.38;1047903;28;20286;-90
2022/10/27 00:37:14;;;;;;;8.00;4.03;;;;;;;10.96;100.00;102061.25;1039449;28;20315;-90
2022/10/27 00:37:45;;;;;;;6.20;4.53;;;;;;;10.96;100.00;102069.25;1039578;28;20306;-90
2022/10/27 00:38:17;;;;;;;8.70;4.65;;;;;;;10.97;100.00;102070.06;1040260;28;20339;-90
2022/10/27 00:38:52;;;;;;;4.90;4.05;;;;;;;10.93;100.00;102063.44;1044376;28;20366;-90
2022/10/27 00:39:23;;;;;;;6.40;4.50;;;;;;;10.92;100.00;102067.13;1043482;28;20299;-90
2022/10/27 00:39:55;;;;;;;5.85;4.07;;;;;;;10.96;100.00;102060.44;1039523;28;21001;-90
2022/10/27 00:40:26;;;;;;;12.55;4.32;;;;;;;11.05;100.00;102064.63;1031288;28;20735;-89
2022/10/27 00:40:58;;;;;;;16.33;5.60;;;;;;;11.10;100.00;102065.69;1028299;28;20517;-90
2022/10/27 00:41:33;;;;;;;8.85;4.80;;;;;;;11.11;100.00;102069.19;1031901;28;20376;-90
2022/10/27 00:42:05;;;;;;;5.07;4.20;;;;;;;11.13;100.00;102070.63;1032401;28;20301;-93
2022/10/27 00:42:36;;;;;;;6.80;4.72;;;;;;;11.14;100.00;102071.47;1030328;28;20333;-91
2022/10/27 00:43:26;;;;;;;9.32;4.75;;;;;;;11.11;100.00;102067.34;1036300;28;20488;-90
2022/10/27 00:44:01;;;;;;;4.45;4.05;;;;;;;11.16;100.00;102074.78;1042845;28;20294;-90
2022/10/27 00:44:35;;;;;;;9.25;4.97;;;;;;;11.12;100.00;102068.16;1041159;28;20382;-90
2022/10/27 00:45:08;;;;;;;7.07;4.32;;;;;;;11.09;100.00;102079.22;1043934;28;20333;-90
2022/10/27 00:45:39;;;;;;;5.82;4.00;;;;;;;11.05;100.00;102080.59;1043126;28;20303;-89
2022/10/27 00:46:22;;;;;;;9.32;4.30;;;;;;;11.05;100.00;102077.94;1041369;28;20322;-93
2022/10/27 00:46:55;;;;;;;8.02;4.05;;;;;;;11.05;100.00;102077.94;1046811;28;20368;-89
2022/10/27 00:47:33;;;;;;;7.57;4.60;;;;;;;11.05;100.00;102075.28;1047231;28;20295;-90
2022/10/27 00:48:04;;;;;;;6.03;3.72;;;;;;;11.06;100.00;102074.25;1043320;28;20299;-90
2022/10/27 00:48:36;;;;;;;7.78;4.18;;;;;;;11.06;100.00;102068.94;1042123;28;20288;-90
2022/10/27 00:49:12;;;;;;;7.90;4.43;;;;;;;11.07;100.00;102075.91;1038201;28;20351;-89
2022/10/27 00:49:53;;;;;;;12.77;4.93;;;;;;;11.11;100.00;102070.00;1035861;28;20810;-90
2022/10/27 00:50:25;;;;;;;9.00;5.00;;;;;;;11.12;100.00;102073.50;1042397;28;20387;-91
2022/10/27 00:50:58;;;;;;;8.65;4.65;;;;;;;11.13;100.00;102075.97;1038135;28;20315;-90
2022/10/27 00:51:30;;;;;;;11.93;5.15;;;;;;;11.14;100.00;102077.63;1029855;28;20306;-90
2022/10/27 00:52:05;;;;;;;5.68;4.50;;;;;;;11.14;100.00;102071.47;1029984;28;20676;-90
2022/10/27 00:52:46;;;;;;;10.98;5.65;;;;;;;11.13;100.00;102086.63;1023581;28;20294;-90
2022/10/27 00:53:17;;;;;;;5.13;3.92;;;;;;;11.09;100.00;102087.22;1029566;28;20294;-90
2022/10/27 00:53:54;;;;;;;4.43;3.42;;;;;;;11.09;100.00;102079.22;1037188;28;20065;-89
2022/10/27 00:54:28;;;;;;;8.10;4.97;;;;;;;11.09;100.00;102082.72;1038733;28;20691;-90
2022/10/27 00:55:03;;;;;;;7.50;4.50;;;;;;;11.11;100.00;102082.50;1037954;28;20323;-90
2022/10/27 00:55:38;;;;;;;4.93;4.43;;;;;;;11.11;100.00;102083.34;1034682;28;20335;-93
2022/10/27 00:56:09;;;;;;;5.93;4.43;;;;;;;11.14;100.00;102082.97;1037452;28;20300;-90
2022/10/27 00:56:42;;;;;;;5.82;4.05;;;;;;;11.16;100.00;102088.09;1031310;28;20313;-89
2022/10/27 00:57:14;;;;;;;7.68;5.72;;;;;;;11.18;100.00;102086.06;1031092;28;20312;-92
2022/10/27 00:57:48;;;;;;;8.68;5.53;;;;;;;11.21;100.00;102085.69;1037833;28;20851;-90
2022/10/27 00:58:20;;;;;;;7.30;3.95;;;;;;;11.23;100.00;102086.34;1040805;28;20288;-90
2022/10/27 00:58:52;;;;;;;7.20;4.65;;;;;;;11.23;100.00;102086.34;1039887;28;20770;-90
2022/10/27 00:59:24;;;;;;;7.07;5.03;;;;;;;11.24;100.00;102080.00;1039402;28;20307;-90
2022/10/27 00:59:56;;;;;;;6.47;4.05;;;;;;;11.24;100.00;102088.00;1037964;28;20078;-91
2022/10/27 01:00:29;;;;;;;4.70;4.25;;;;;;;11.26;100.00;102091.31;1039442;28;20295;-90
2022/10/27 01:01:00;;;;;;;9.43;4.95;;;;;;;11.25;100.00;102083.50;1035407;28;20288;-88
2022/10/27 01:01:32;;;;;;;8.07;4.28;;;;;;;11.26;100.00;102085.16;1035943;28;20297;-90
2022/10/27 01:02:05;;;;;;;4.78;4.00;;;;;;;11.25;100.00;102083.50;1038062;28;20406;-90
2022/10/27 01:02:37;;;;;;;11.10;4.90;;;;;;;11.28;100.00;102083.94;1025809;28;20298;-90
2022/10/27 01:03:12;;;;;;;10.27;4.65;;;;;;;11.29;100.00;102085.59;1032354;28;20309;-90
2022/10/27 01:03:44;;;;;;;13.93;5.68;;;;;;;11.31;100.00;102086.22;1036245;28;20305;-90
2022/10/27 01:04:32;;;;;;;8.07;4.50;;;;;;;11.35;100.00;102090.16;1036701;28;20050;-91
2022/10/27 01:05:14;;;;;;;8.25;5.03;;;;;;;11.35;100.00;102090.16;1035152;28;20730;-90
2022/10/27 01:05:47;;;;;;;7.47;4.32;;;;;;;11.38;100.00;102092.44;1039715;28;20314;-91
2022/10/27 01:06:18;;;;;;;6.20;4.35;;;;;;;11.35;100.00;102084.81;1040699;28;20299;-90
2022/10/27 01:06:50;;;;;;;9.88;4.60;;;;;;;11.34;100.00;102093.00;1040830;28;20300;-90
2022/10/27 01:07:22;;;;;;;9.25;4.20;;;;;;;11.32;100.00;102085.19;1039562;28;20303;-90
2022/10/27 01:07:58;;;;;;;6.75;4.25;;;;;;;11.33;100.00;102096.69;1033733;28;20359;-90
2022/10/27 01:08:30;;;;;;;9.48;5.45;;;;;;;11.34;100.00;102093.84;1035554;28;20370;-90
2022/10/27 01:09:02;;;;;;;8.32;4.30;;;;;;;11.35;100.00;102095.50;1035226;28;20309;-89
2022/10/27 01:09:34;;;;;;;8.07;5.68;;;;;;;11.36;100.00;102097.13;1036740;28;20366;-90
2022/10/27 01:10:05;;;;;;;7.47;4.85;;;;;;;11.38;100.00;102095.09;1037283;28;20402;-90
2022/10/27 01:10:37;;;;;;;8.65;4.10;;;;;;;11.39;100.00;102093.25;1039564;28;20426;-90
2022/10/27 01:11:08;;;;;;;14.13;4.97;;;;;;;11.40;100.00;102093.06;1040169;28;20291;-89
2022/10/27 01:11:40;;;;;;;5.97;4.35;;;;;;;11.41;100.00;102100.06;1028894;28;20308;-90
2022/10/27 01:12:11;;;;;;;11.38;4.80;;;;;;;11.44;100.00;102091.66;1031860;28;20811;-89
2022/10/27 01:12:44;;;;;;;8.63;4.97;;;;;;;11.46;100.00;102086.97;1039637;28;20884;-90
2022/10/27 01:13:17;;;;;;;26.70;9.68;;;;;;;11.48;100.00;102093.94;1035199;28;20301;-90
2022/10/27 01:13:48;;;;;;;9.20;5.32;;;;;;;11.50;100.00;102097.25;1037054;28;20818;-91
2022/10/27 01:14:20;;;;;;;9.13;4.13;;;;;;;11.52;100.00;102092.56;1039501;28;20355;-89
2022/10/27 01:14:52;;;;;;;8.68;4.65;;;;;;;11.52;100.00;102093.41;1037937;28;20288;-90
2022/10/27 01:15:31;;;;;;;6.47;4.70;;;;;;;11.53;100.00;102099.56;1039483;28;20300;-90
2022/10/27 01:16:50;;;;;;;5.82;4.90;;;;;;;11.56;100.00;102096.50;1041078;28;20790;-90
2022/10/27 01:17:28;;;;;;;13.45;4.95;;;;;;;11.57;100.00;102096.31;1032681;28;20302;-85
2022/10/27 01:18:20;;;;;;;5.72;4.07;;;;;;;11.61;100.00;102102.09;1044081;28;20294;-90
2022/10/27 01:19:03;;;;;;;6.72;4.38;;;;;;;11.66;100.00;102103.16;1047387;28;20668;-91
2022/10/27 01:20:12;;;;;;;7.28;5.22;;;;;;;11.70;100.00;102103.59;1044084;28;20303;-89
2022/10/27 01:21:08;;;;;;;8.75;4.82;;;;;;;11.72;100.00;102104.22;1047725;28;20290;-91
2022/10/27 01:22:02;;;;;;;11.43;5.00;;;;;;;11.71;100.00;102111.41;1046358;28;20303;-90
2022/10/27 01:22:55;;;;;;;10.85;4.78;;;;;;;11.70;100.00;102103.59;1038961;28;20296;-89
2022/10/27 01:24:02;;;;;;;9.73;3.90;;;;;;;11.69;100.00;102108.09;1042583;28;20299;-90
2022/10/27 01:24:56;;;;;;;11.15;5.32;;;;;;;11.75;100.00;102109.16;1041260;28;20675;-90
2022/10/27 01:25:33;;;;;;;8.10;4.75;;;;;;;11.75;100.00;102102.00;1039430;28;20370;-91
2022/10/27 01:26:41;;;;;;;7.05;5.10;;;;;;;11.75;100.00;102106.50;1039801;28;20762;-89
2022/10/27 01:27:29;;;;;;;6.43;5.07;;;;;;;11.79;100.00;102099.81;1047050;28;20653;-90
2022/10/27 01:28:23;;;;;;;7.53;5.53;;;;;;;11.79;100.00;102099.81;1048040;28;20313;-90
2022/10/27 01:29:00;;;;;;;11.63;5.43;;;;;;;11.79;100.00;102107.84;1047616;28;20302;-90
2022/10/27 01:29:55;;;;;;;6.45;5.53;;;;;;;11.77;100.00;102099.13;1046032;28;20340;-89
2022/10/27 01:30:28;;;;;;;10.13;5.35;;;;;;;11.78;100.00;102100.84;1043182;28;20302;-90
2022/10/27 01:31:13;;;;;;;10.13;5.82;;;;;;;11.77;100.00;102099.13;1039510;28;20702;-90
2022/10/27 01:32:18;;;;;;;9.05;6.10;;;;;;;11.79;100.00;102107.84;1029303;28;20298;-90
2022/10/27 01:32:55;;;;;;;7.47;4.57;;;;;;;11.80;100.00;102106.81;1038566;28;20293;-89
2022/10/27 01:33:35;;;;;;;11.52;6.05;;;;;;;11.81;100.00;102107.63;1044854;28;20302;-90
2022/10/27 01:34:11;;;;;;;20.25;7.90;;;;;;;11.81;100.00;102108.47;1047462;28;20307;-90
2022/10/27 01:34:47;;;;;;;8.65;5.57;;;;;;;11.83;100.00;102110.94;1040099;28;20300;-91
2022/10/27 01:35:27;;;;;;;7.72;5.47;;;;;;;11.85;100.00;102106.22;1031263;28;20392;-90
2022/10/27 01:36:02;;;;;;;10.27;5.35;;;;;;;11.86;100.00;102106.03;1029646;28;20312;-91
2022/10/27 01:36:39;;;;;;;7.53;5.80;;;;;;;11.88;100.00;102105.84;1034273;28;20370;-89
2022/10/27 01:37:16;;;;;;;11.30;5.72;;;;;;;11.87;100.00;102105.00;1040891;28;20299;-91
2022/10/27 01:37:47;;;;;;;11.93;5.18;;;;;;;11.88;100.00;102113.84;1034802;28;20874;-92
2022/10/27 01:38:28;;;;;;;6.60;5.05;;;;;;;11.84;100.00;102110.75;1036851;28;20312;-89
2022/10/27 01:39:05;;;;;;;9.25;5.57;;;;;;;11.85;100.00;102101.72;1035280;28;20295;-89
2022/10/27 01:39:43;;;;;;;6.53;5.47;;;;;;;11.85;100.00;102109.72;1036415;28;20285;-90
2022/10/27 01:40:22;;;;;;;6.25;5.25;;;;;;;11.80;100.00;102114.81;1039689;28;20377;-90
2022/10/27 01:40:58;;;;;;;11.10;5.82;;;;;;;11.79;100.00;102113.16;1034146;28;20308;-90
2022/10/27 01:41:47;;;;;;;6.35;5.22;;;;;;;11.79;100.00;102107.84;1038496;28;20702;-90
2022/10/27 01:42:27;;;;;;;9.80;5.88;;;;;;;11.77;100.00;102109.81;1040591;28;20315;-90
2022/10/27 01:43:00;;;;;;;;;;;;;;;11.78;100.00;102106.19;1044166;28;20349;-88
2022/10/27 01:43:33;;;;;;;5.80;4.68;;;;;;;11.77;100.00;102107.13;1039443;28;19928;-89
2022/10/27 01:44:08;;;;;;;8.23;5.07;;;;;;;11.74;100.00;102112.88;1041415;28;20300;-90
2022/10/27 01:44:43;;;;;;;9.68;5.55;;;;;;;11.71;100.00;102105.25;1039214;28;20303;-90
2022/10/27 01:45:19;;;;;;;8.45;5.53;;;;;;;11.70;100.00;102103.59;1036736;28;20321;-89
2022/10/27 01:45:52;;;;;;;7.03;5.15;;;;;;;11.69;100.00;102108.09;1037996;28;20300;-90
2022/10/27 01:46:24;;;;;;;8.98;5.57;;;;;;;11.70;100.00;102100.94;1035522;28;20304;-90
2022/10/27 01:46:57;;;;;;;6.97;5.68;;;;;;;11.71;100.00;102102.56;1036106;28;20667;-90
2022/10/27 01:47:28;;;;;;;7.00;5.35;;;;;;;11.70;100.00;102103.59;1039753;28;20312;-90
2022/10/27 01:48:01;;;;;;;8.43;5.45;;;;;;;11.72;100.00;102101.56;1040641;28;20800;-89
2022/10/27 01:48:34;;;;;;;41.58;8.07;;;;;;;11.72;100.00;102106.91;1039869;28;20315;-89
2022/10/27 01:49:06;;;;;;;10.88;6.43;;;;;;;11.70;100.00;102108.94;1043608;28;20298;-90
2022/10/27 01:49:40;;;;;;;12.15;5.50;;;;;;;11.70;100.00;102103.59;1035684;28;20301;-90
2022/10/27 01:50:16;;;;;;;19.95;7.47;;;;;;;11.67;100.00;102098.66;1035451;28;20333;-90
2022/10/27 01:50:47;;;;;;;8.18;7.03;;;;;;;11.66;100.00;102103.16;1031221;28;20691;-91
2022/10/27 01:51:34;;;;;;;6.65;5.05;;;;;;;11.65;100.00;102104.19;1033485;28;20296;-90
2022/10/27 01:52:27;;;;;;;9.10;5.32;;;;;;;11.66;100.00;102099.66;1042318;28;20373;-90
2022/10/27 01:52:58;;;;;;;7.68;5.78;;;;;;;11.63;100.00;102102.72;1038438;28;20838;-90
2022/10/27 01:53:33;;;;;;;5.47;4.70;;;;;;;11.61;100.00;102100.25;1035011;28;20654;-90
2022/10/27 01:54:05;;;;;;;12.55;6.13;;;;;;;11.59;100.00;102096.13;1037006;28;20307;-90
2022/10/27 01:54:36;;;;;;;7.78;5.78;;;;;;;11.59;100.00;102102.28;1031224;28;20304;-90
2022/10/27 01:55:38;;;;;;;12.98;5.60;;;;;;;11.57;100.00;102098.16;1029415;28;20354;-92
2022/10/27 01:56:24;;;;;;;7.15;5.32;;;;;;;11.57;100.00;102100.81;1036689;28;20293;-90
2022/10/27 01:57:19;;;;;;;6.72;5.40;;;;;;;11.55;100.00;102094.84;1039478;28;20386;-90
2022/10/27 01:58:01;;;;;;;7.97;5.13;;;;;;;11.53;100.00;102099.56;1035109;28;20301;-92
2022/10/27 01:59:10;;;;;;;6.05;5.43;;;;;;;11.51;100.00;102093.59;1033221;28;20317;-91
2022/10/27 02:00:01;;;;;;;10.48;6.05;;;;;;;11.59;100.00;102096.13;1038074;28;20305;-92
2022/10/27 02:00:59;;;;;;;12.52;4.82;;;;;;;11.55;100.00;102100.19;1043430;28;20338;-92
2022/10/27 02:01:41;;;;;;;13.35;5.43;;;;;;;11.52;100.00;102100.56;1039451;28;20299;-92
2022/10/27 02:02:27;;;;;;;8.30;5.40;;;;;;;11.49;100.00;102106.28;1043021;28;20684;-91
2022/10/27 02:03:08;;;;;;;6.75;4.90;;;;;;;11.48;100.00;102096.63;1040917;28;20303;-91
2022/10/27 02:03:58;;;;;;;6.20;5.60;;;;;;;11.44;100.00;102104.19;1044012;28;20663;-90
2022/10/27 02:04:44;;;;;;;10.25;5.80;;;;;;;11.45;100.00;102103.16;1043320;28;20478;-89
2022/10/27 02:05:48;;;;;;;5.28;4.78;;;;;;;11.39;100.00;102096.75;1043682;28;20288;-90
2022/10/27 02:06:32;;;;;;;7.03;5.50;;;;;;;11.35;100.00;102095.50;1041434;28;20291;-89
2022/10/27 02:07:26;;;;;;;9.55;5.50;;;;;;;11.34;100.00;102098.34;1035559;28;20300;-89
2022/10/27 02:08:29;;;;;;;5.80;5.10;;;;;;;11.30;100.00;102103.25;1040324;28;20295;-92
2022/10/27 02:09:12;;;;;;;5.97;5.40;;;;;;;11.26;100.00;102099.31;1042233;28;20291;-92
2022/10/27 02:09:48;;;;;;;14.07;6.28;;;;;;;11.26;100.00;102101.16;1042169;28;20732;-90
2022/10/27 02:10:23;;;;;;;5.93;5.13;;;;;;;11.26;100.00;102098.47;1041884;28;20789;-92
2022/10/27 02:11:01;;;;;;;9.68;5.15;;;;;;;11.25;100.00;102100.31;1030957;28;20312;-88
2022/10/27 02:11:34;;;;;;;8.85;5.70;;;;;;;11.26;100.00;102107.31;1031088;28;20346;-91
2022/10/27 02:12:28;;;;;;;7.30;5.72;;;;;;;11.27;100.00;102102.81;1035077;28;20356;-92
2022/10/27 02:12:59;;;;;;;10.57;7.40;;;;;;;11.29;100.00;102101.59;1032970;28;20297;-92
2022/10/27 02:13:34;;;;;;;8.07;5.53;;;;;;;11.36;100.00;102097.13;1031177;28;20301;-92
2022/10/27 02:14:07;;;;;;;9.18;6.65;;;;;;;11.36;100.00;102102.47;1038071;28;20307;-92
2022/10/27 02:14:41;;;;;;;9.10;6.05;;;;;;;11.37;100.00;102103.31;1033107;28;20301;-92
2022/10/27 02:15:42;;;;;;;11.25;5.97;;;;;;;11.36;100.00;102101.66;1032750;28;20397;-90
2022/10/27 02:16:22;;;;;;;12.20;5.80;;;;;;;11.34;100.00;102099.16;1035255;28;20632;-91
2022/10/27 02:16:54;;;;;;;11.27;6.10;;;;;;;11.33;100.00;102108.19;1038351;28;20085;-90
2022/10/27 02:17:29;;;;;;;10.70;5.82;;;;;;;11.34;100.00;102098.34;1039068;28;20300;-90
2022/10/27 02:18:04;;;;;;;8.60;6.57;;;;;;;11.31;100.00;102099.56;1035729;28;20296;-90
2022/10/27 02:18:40;;;;;;;7.05;5.60;;;;;;;11.30;100.00;102099.75;1035204;28;20360;-88
2022/10/27 02:19:20;;;;;;;9.23;6.30;;;;;;;11.29;100.00;102096.25;1037348;28;20304;-90
2022/10/27 02:19:53;;;;;;;10.82;5.95;;;;;;;11.27;100.00;102100.13;1037984;28;20293;-90
2022/10/27 02:20:28;;;;;;;8.85;5.68;;;;;;;11.24;100.00;102101.34;1039943;28;20504;-90
2022/10/27 02:21:03;;;;;;;9.63;5.30;;;;;;;11.25;100.00;102095.00;1038609;28;20379;-91
2022/10/27 02:21:41;;;;;;;9.52;6.43;;;;;;;11.22;100.00;102098.00;1035924;28;20844;-90
2022/10/27 02:22:13;;;;;;;9.35;5.07;;;;;;;11.22;100.00;102098.00;1033970;28;20301;-90
2022/10/27 02:22:45;;;;;;;8.02;5.60;;;;;;;11.17;100.00;102097.75;1036884;28;20308;-90
2022/10/27 02:23:21;;;;;;;5.40;4.90;;;;;;;11.19;100.00;102095.72;1031666;28;20302;-90
2022/10/27 02:23:53;;;;;;;6.25;5.22;;;;;;;11.16;100.00;102098.78;1037677;28;20300;-90
2022/10/27 02:24:25;;;;;;;8.18;4.80;;;;;;;11.15;100.00;102095.28;1040096;28;20299;-90
2022/10/27 02:24:57;;;;;;;6.53;5.28;;;;;;;11.17;100.00;102103.09;1033708;28;20313;-88
2022/10/27 02:25:35;;;;;;;8.77;5.78;;;;;;;11.15;100.00;102092.63;1039023;28;20300;-90
2022/10/27 02:26:10;;;;;;;5.45;4.95;;;;;;;11.16;100.00;102096.09;1031721;28;20302;-90
2022/10/27 02:26:50;;;;;;;6.10;5.35;;;;;;;11.17;100.00;102097.75;1042765;28;20300;-90
2022/10/27 02:27:38;;;;;;;7.43;5.93;;;;;;;11.18;100.00;102101.25;1041948;28;20302;-90
2022/10/27 02:28:12;;;;;;;7.68;4.85;;;;;;;11.15;100.00;102097.94;1039165;28;20041;-90
2022/10/27 02:29:20;;;;;;;6.75;6.13;;;;;;;11.15;100.00;102095.28;1040962;28;20302;-89
2022/10/27 02:29:56;;;;;;;7.05;5.07;;;;;;;11.15;100.00;102097.13;1035292;28;20305;-90
2022/10/27 02:30:29;;;;;;;7.82;4.72;;;;;;;11.14;100.00;102100.81;1030820;28;20308;-90
2022/10/27 02:31:01;;;;;;;7.90;5.45;;;;;;;11.13;100.00;102099.16;1026789;28;20725;-84
2022/10/27 02:31:35;;;;;;;7.38;5.65;;;;;;;11.12;100.00;102100.16;1028239;28;20302;-84
2022/10/27 02:32:13;;;;;;;10.68;5.47;;;;;;;11.09;100.00;102095.22;1030170;28;20293;-84
2022/10/27 02:32:45;;;;;;;7.10;5.00;;;;;;;11.06;100.00;102104.41;1040479;28;20314;-84
2022/10/27 02:33:17;;;;;;;7.50;4.60;;;;;;;11.06;100.00;102100.94;1026888;28;20305;-84
2022/10/27 02:33:50;;;;;;;4.93;4.40;;;;;;;11.03;100.00;102101.31;1030153;28;20680;-84
2022/10/27 02:34:24;;;;;;;9.05;5.60;;;;;;;11.03;100.00;102103.97;1031140;28;20285;-90
2022/10/27 02:34:56;;;;;;;6.50;5.90;;;;;;;11.01;100.00;102098.84;1030233;28;20294;-90
2022/10/27 02:35:28;;;;;;;6.30;5.70;;;;;;;11.00;100.00;102102.50;1034941;28;20364;-90
2022/10/27 02:36:00;;;;;;;7.82;7.03;;;;;;;11.01;100.00;102109.50;1039081;28;20353;-91
2022/10/27 02:36:32;;;;;;;6.97;5.30;;;;;;;10.98;100.00;102098.38;1037015;28;20303;-90
2022/10/27 02:37:04;;;;;;;8.80;5.30;;;;;;;10.97;100.00;102094.06;1029390;28;20700;-90
2022/10/27 02:37:39;;;;;;;9.63;4.85;;;;;;;10.96;100.00;102097.75;1031018;28;20301;-90
2022/10/27 02:38:10;;;;;;;9.88;6.18;;;;;;;10.98;100.00;102093.06;1035453;28;20883;-91
2022/10/27 02:38:42;;;;;;;9.63;5.75;;;;;;;10.99;100.00;102092.03;1031295;28;20404;-90
2022/10/27 02:39:13;;;;;;;10.18;6.13;;;;;;;10.98;100.00;102087.72;1032490;28;20308;-89
2022/10/27 02:39:45;;;;;;;12.43;6.55;;;;;;;10.97;100.00;102091.41;1042849;28;20342;-90
2022/10/27 02:40:16;;;;;;;9.27;5.90;;;;;;;10.98;100.00;102087.72;1047831;28;20309;-91
2022/10/27 02:40:49;;;;;;;6.72;5.93;;;;;;;10.98;100.00;102085.06;1040758;28;20743;-90
2022/10/27 02:41:20;;;;;;;15.95;5.88;;;;;;;10.95;100.00;102088.91;1039817;28;20299;-85
2022/10/27 02:41:52;;;;;;;9.73;6.15;;;;;;;10.94;100.00;102094.41;1042039;28;20299;-84
2022/10/27 02:42:25;;;;;;;7.30;6.03;;;;;;;10.92;100.00;102091.13;1045774;28;20290;-89
2022/10/27 02:42:56;;;;;;;9.40;6.32;;;;;;;10.94;100.00;102089.91;1039040;28;20300;-89
2022/10/27 02:43:28;;;;;;;9.82;6.47;;;;;;;11.03;100.00;102090.63;1039440;28;20307;-89
2022/10/27 02:43:59;;;;;;;12.45;7.72;;;;;;;11.03;100.00;102093.31;1041556;28;20300;-90
2022/10/27 02:44:31;;;;;;;11.82;6.93;;;;;;;11.01;100.00;102092.66;1042229;28;20346;-89
2022/10/27 02:45:03;;;;;;;8.13;7.15;;;;;;;10.98;100.00;102093.88;1043259;28;20291;-91
2022/10/27 02:45:35;;;;;;;12.23;8.18;;;;;;;10.98;100.00;102093.06;1041973;28;20300;-90
2022/10/27 02:46:06;;;;;;;11.80;6.95;;;;;;;10.98;100.00;102095.72;1039319;28;20300;-90
2022/10/27 02:46:38;;;;;;;9.68;7.47;;;;;;;10.94;100.00;102089.09;1039488;28;20288;-89
2022/10/27 02:47:09;;;;;;;8.32;6.43;;;;;;;10.93;100.00;102090.09;1039808;28;20303;-91